sensor_id;sensor_type;location;lat;lon;timestamp;temperature;humidity
44305;DHT22;30019;50.576;8.568;2023-02-28T00:02:17;0.00;99.90
44305;DHT22;30019;50.576;8.568;2023-02-28T00:04:43;-0.10;99.90
44305;DHT22;30019;50.576;8.568;2023-02-28T00:07:09;-0.10;99.90
44305;DHT22;30019;50.576;8.568;2023-02-28T00:09:34;-0.10;99.90
44305;DHT22;30019;50.576;8.568;2023-02-28T00:12:00;-0.10;99.90
44305;DHT22;30019;50.576;8.568;2023-02-28T00:14:30;-0.10;99.90
44305;DHT22;30019;50.576;8.568;2023-02-28T00:16:55;-0.10;99.90
44305;DHT22;30019;50.576;8.568;2023-02-28T00:19:21;-0.10;99.90
44305;DHT22;30019;50.576;8.568;2023-02-28T00:21:46;-0.10;99.90
44305;DHT22;30019;50.576;8.568;2023-02-28T00:24:12;-0.20;99.90
44305;DHT22;30019;50.576;8.568;2023-02-28T00:26:37;-0.30;99.90
44305;DHT22;30019;50.576;8.568;2023-02-28T00:29:03;-0.40;99.90
44305;DHT22;30019;50.576;8.568;2023-02-28T00:31:28;-0.40;99.90
44305;DHT22;30019;50.576;8.568;2023-02-28T00:33:54;-0.50;99.90
44305;DHT22;30019;50.576;8.568;2023-02-28T00:36:19;-0.60;99.90
44305;DHT22;30019;50.576;8.568;2023-02-28T00:38:45;-0.70;99.90
44305;DHT22;30019;50.576;8.568;2023-02-28T00:41:10;-0.70;99.90
44305;DHT22;30019;50.576;8.568;2023-02-28T00:43:37;-0.80;99.90
44305;DHT22;30019;50.576;8.568;2023-02-28T00:46:03;-0.80;99.90
44305;DHT22;30019;50.576;8.568;2023-02-28T00:48:29;-0.80;99.90
44305;DHT22;30019;50.576;8.568;2023-02-28T00:50:55;-0.90;99.90
44305;DHT22;30019;50.576;8.568;2023-02-28T00:53:21;-0.90;99.90
44305;DHT22;30019;50.576;8.568;2023-02-28T00:55:48;-0.80;99.90
44305;DHT22;30019;50.576;8.568;2023-02-28T00:58:13;-0.80;99.90
44305;DHT22;30019;50.576;8.568;2023-02-28T01:00:39;-0.80;99.90
44305;DHT22;30019;50.576;8.568;2023-02-28T01:03:04;-0.80;99.90
44305;DHT22;30019;50.576;8.568;2023-02-28T01:05:30;-0.80;99.90
44305;DHT22;30019;50.576;8.568;2023-02-28T01:07:55;-0.80;99.90
44305;DHT22;30019;50.576;8.568;2023-02-28T01:10:21;-0.80;99.90
44305;DHT22;30019;50.576;8.568;2023-02-28T01:12:46;-0.70;99.90
44305;DHT22;30019;50.576;8.568;2023-02-28T01:15:12;-0.70;99.90
44305;DHT22;30019;50.576;8.568;2023-02-28T01:17:38;-0.70;99.90
44305;DHT22;30019;50.576;8.568;2023-02-28T01:20:04;-0.70;99.90
44305;DHT22;30019;50.576;8.568;2023-02-28T01:22:29;-0.80;99.90
44305;DHT22;30019;50.576;8.568;2023-02-28T01:24:55;-0.70;99.90
44305;DHT22;30019;50.576;8.568;2023-02-28T01:27:20;-0.70;99.90
44305;DHT22;30019;50.576;8.568;2023-02-28T01:29:46;-0.70;99.90
44305;DHT22;30019;50.576;8.568;2023-02-28T01:32:12;-0.70;99.90
44305;DHT22;30019;50.576;8.568;2023-02-28T01:34:37;-0.70;99.90
44305;DHT22;30019;50.576;8.568;2023-02-28T01:37:03;-0.80;99.90
44305;DHT22;30019;50.576;8.568;2023-02-28T01:39:29;-0.80;99.90
44305;DHT22;30019;50.576;8.568;2023-02-28T01:41:54;-0.80;99.90
44305;DHT22;30019;50.576;8.568;2023-02-28T01:44:58;-0.90;99.90
44305;DHT22;30019;50.576;8.568;2023-02-28T01:47:28;-0.90;99.90
44305;DHT22;30019;50.576;8.568;2023-02-28T01:49:54;-0.90;99.90
44305;DHT22;30019;50.576;8.568;2023-02-28T01:52:21;-0.90;99.90
44305;DHT22;30019;50.576;8.568;2023-02-28T01:54:59;-0.80;99.90
44305;DHT22;30019;50.576;8.568;2023-02-28T01:57:30;-0.90;99.90
44305;DHT22;30019;50.576;8.568;2023-02-28T02:00:06;-0.90;99.90
44305;DHT22;30019;50.576;8.568;2023-02-28T02:02:33;-1.00;99.90
44305;DHT22;30019;50.576;8.568;2023-02-28T02:05:06;-1.00;99.90
44305;DHT22;30019;50.576;8.568;2023-02-28T02:07:36;-1.00;99.90
44305;DHT22;30019;50.576;8.568;2023-02-28T02:10:18;-1.00;99.90
44305;DHT22;30019;50.576;8.568;2023-02-28T02:13:13;-1.10;99.90
44305;DHT22;30019;50.576;8.568;2023-02-28T02:18:37;-1.00;99.90
44305;DHT22;30019;50.576;8.568;2023-02-28T02:23:52;-1.10;99.90
44305;DHT22;30019;50.576;8.568;2023-02-28T02:34:52;-1.20;99.90
44305;DHT22;30019;50.576;8.568;2023-02-28T02:37:40;-1.20;99.90
44305;DHT22;30019;50.576;8.568;2023-02-28T02:40:48;-1.20;99.90
44305;DHT22;30019;50.576;8.568;2023-02-28T02:43:16;-1.20;99.90
44305;DHT22;30019;50.576;8.568;2023-02-28T02:45:59;-1.30;99.90
44305;DHT22;30019;50.576;8.568;2023-02-28T02:48:30;-1.30;99.90
44305;DHT22;30019;50.576;8.568;2023-02-28T02:51:00;-1.30;99.90
44305;DHT22;30019;50.576;8.568;2023-02-28T02:53:37;-1.40;99.90
44305;DHT22;30019;50.576;8.568;2023-02-28T02:56:04;-1.40;99.90
44305;DHT22;30019;50.576;8.568;2023-02-28T02:58:37;-1.40;99.90
44305;DHT22;30019;50.576;8.568;2023-02-28T03:01:08;-1.40;99.90
44305;DHT22;30019;50.576;8.568;2023-02-28T03:03:36;-1.30;99.90
44305;DHT22;30019;50.576;8.568;2023-02-28T03:06:02;-1.30;99.90
44305;DHT22;30019;50.576;8.568;2023-02-28T03:08:31;-1.30;99.90
44305;DHT22;30019;50.576;8.568;2023-02-28T03:11:04;-1.30;99.90
44305;DHT22;30019;50.576;8.568;2023-02-28T03:16:54;-1.30;99.90
44305;DHT22;30019;50.576;8.568;2023-02-28T03:22:14;-1.40;99.90
44305;DHT22;30019;50.576;8.568;2023-02-28T03:27:49;-1.30;99.90
44305;DHT22;30019;50.576;8.568;2023-02-28T03:35:42;-1.40;99.90
44305;DHT22;30019;50.576;8.568;2023-02-28T03:38:29;-1.30;99.90
44305;DHT22;30019;50.576;8.568;2023-02-28T03:41:57;-1.40;99.90
44305;DHT22;30019;50.576;8.568;2023-02-28T03:45:08;-1.40;99.90
44305;DHT22;30019;50.576;8.568;2023-02-28T03:47:14;-1.40;99.90
44305;DHT22;30019;50.576;8.568;2023-02-28T03:52:25;-1.50;99.90
44305;DHT22;30019;50.576;8.568;2023-02-28T03:54:55;-1.50;99.90
44305;DHT22;30019;50.576;8.568;2023-02-28T03:57:38;-1.50;99.90
44305;DHT22;30019;50.576;8.568;2023-02-28T04:00:20;-1.50;99.90
44305;DHT22;30019;50.576;8.568;2023-02-28T04:02:46;-1.50;99.90
44305;DHT22;30019;50.576;8.568;2023-02-28T04:05:18;-1.60;99.90
44305;DHT22;30019;50.576;8.568;2023-02-28T04:07:44;-1.50;99.90
44305;DHT22;30019;50.576;8.568;2023-02-28T04:10:11;-1.50;99.90
44305;DHT22;30019;50.576;8.568;2023-02-28T04:12:37;-1.50;99.90
44305;DHT22;30019;50.576;8.568;2023-02-28T04:15:02;-1.60;99.90
44305;DHT22;30019;50.576;8.568;2023-02-28T04:17:28;-1.60;99.90
44305;DHT22;30019;50.576;8.568;2023-02-28T04:19:54;-1.60;99.90
44305;DHT22;30019;50.576;8.568;2023-02-28T04:22:21;-1.60;99.90
44305;DHT22;30019;50.576;8.568;2023-02-28T04:24:47;-1.60;99.90
44305;DHT22;30019;50.576;8.568;2023-02-28T04:27:13;-1.60;99.90
44305;DHT22;30019;50.576;8.568;2023-02-28T04:29:41;-1.60;99.90
44305;DHT22;30019;50.576;8.568;2023-02-28T04:32:10;-1.50;99.90
44305;DHT22;30019;50.576;8.568;2023-02-28T04:34:36;-1.50;99.90
44305;DHT22;30019;50.576;8.568;2023-02-28T04:37:02;-1.50;99.90
44305;DHT22;30019;50.576;8.568;2023-02-28T04:39:28;-1.50;99.90
44305;DHT22;30019;50.576;8.568;2023-02-28T04:41:55;-1.50;99.90
44305;DHT22;30019;50.576;8.568;2023-02-28T04:44:21;-1.50;99.90
44305;DHT22;30019;50.576;8.568;2023-02-28T04:46:48;-1.60;99.90
44305;DHT22;30019;50.576;8.568;2023-02-28T04:49:14;-1.50;99.90
44305;DHT22;30019;50.576;8.568;2023-02-28T04:51:40;-1.60;99.90
44305;DHT22;30019;50.576;8.568;2023-02-28T04:54:07;-1.50;99.90
44305;DHT22;30019;50.576;8.568;2023-02-28T04:56:32;-1.50;99.90
44305;DHT22;30019;50.576;8.568;2023-02-28T04:58:58;-1.60;99.90
44305;DHT22;30019;50.576;8.568;2023-02-28T05:01:25;-1.60;99.90
44305;DHT22;30019;50.576;8.568;2023-02-28T05:03:52;-1.60;99.90
44305;DHT22;30019;50.576;8.568;2023-02-28T05:06:19;-1.50;99.90
44305;DHT22;30019;50.576;8.568;2023-02-28T05:08:45;-1.50;99.90
44305;DHT22;30019;50.576;8.568;2023-02-28T05:11:20;-1.50;99.90
44305;DHT22;30019;50.576;8.568;2023-02-28T05:13:46;-1.50;99.90
44305;DHT22;30019;50.576;8.568;2023-02-28T05:16:12;-1.50;99.90
44305;DHT22;30019;50.576;8.568;2023-02-28T05:18:38;-1.60;99.90
44305;DHT22;30019;50.576;8.568;2023-02-28T05:21:04;-1.60;99.90
44305;DHT22;30019;50.576;8.568;2023-02-28T05:23:30;-1.60;99.90
44305;DHT22;30019;50.576;8.568;2023-02-28T05:25:55;-1.60;99.90
44305;DHT22;30019;50.576;8.568;2023-02-28T05:28:21;-1.60;99.90
44305;DHT22;30019;50.576;8.568;2023-02-28T05:30:47;-1.60;99.90
44305;DHT22;30019;50.576;8.568;2023-02-28T05:33:13;-1.50;99.90
44305;DHT22;30019;50.576;8.568;2023-02-28T05:35:42;-1.50;99.90
44305;DHT22;30019;50.576;8.568;2023-02-28T05:38:08;-1.50;99.90
44305;DHT22;30019;50.576;8.568;2023-02-28T05:40:33;-1.50;99.90
44305;DHT22;30019;50.576;8.568;2023-02-28T05:42:59;-1.40;99.90
44305;DHT22;30019;50.576;8.568;2023-02-28T05:45:24;-1.30;99.90
44305;DHT22;30019;50.576;8.568;2023-02-28T05:47:53;-1.30;99.90
44305;DHT22;30019;50.576;8.568;2023-02-28T05:50:19;-1.30;99.90
44305;DHT22;30019;50.576;8.568;2023-02-28T05:52:51;-1.30;99.90
44305;DHT22;30019;50.576;8.568;2023-02-28T05:55:17;-1.30;99.90
44305;DHT22;30019;50.576;8.568;2023-02-28T05:57:43;-1.30;99.90
44305;DHT22;30019;50.576;8.568;2023-02-28T06:00:10;-1.20;99.90
44305;DHT22;30019;50.576;8.568;2023-02-28T06:02:35;-1.20;99.90
44305;DHT22;30019;50.576;8.568;2023-02-28T06:05:15;-1.10;99.90
44305;DHT22;30019;50.576;8.568;2023-02-28T06:07:40;-1.00;99.90
44305;DHT22;30019;50.576;8.568;2023-02-28T06:10:07;-1.00;99.90
44305;DHT22;30019;50.576;8.568;2023-02-28T06:12:32;-0.90;99.90
44305;DHT22;30019;50.576;8.568;2023-02-28T06:14:58;-0.90;99.90
44305;DHT22;30019;50.576;8.568;2023-02-28T06:17:23;-0.80;99.90
44305;DHT22;30019;50.576;8.568;2023-02-28T06:19:49;-0.80;99.90
44305;DHT22;30019;50.576;8.568;2023-02-28T06:22:14;-0.70;99.90
44305;DHT22;30019;50.576;8.568;2023-02-28T06:24:40;-0.70;99.90
44305;DHT22;30019;50.576;8.568;2023-02-28T06:27:05;-0.70;99.90
44305;DHT22;30019;50.576;8.568;2023-02-28T06:29:32;-0.60;99.90
44305;DHT22;30019;50.576;8.568;2023-02-28T06:31:58;-0.50;99.90
44305;DHT22;30019;50.576;8.568;2023-02-28T06:34:23;-0.50;99.90
44305;DHT22;30019;50.576;8.568;2023-02-28T06:36:50;-0.40;99.90
44305;DHT22;30019;50.576;8.568;2023-02-28T06:39:16;-0.40;99.90
44305;DHT22;30019;50.576;8.568;2023-02-28T06:41:42;-0.40;99.90
44305;DHT22;30019;50.576;8.568;2023-02-28T06:44:15;-0.30;99.90
44305;DHT22;30019;50.576;8.568;2023-02-28T06:46:42;-0.30;99.90
44305;DHT22;30019;50.576;8.568;2023-02-28T06:49:09;-0.30;99.90
44305;DHT22;30019;50.576;8.568;2023-02-28T06:51:36;-0.30;99.90
44305;DHT22;30019;50.576;8.568;2023-02-28T06:54:02;-0.30;99.90
44305;DHT22;30019;50.576;8.568;2023-02-28T06:56:28;-0.30;99.90
44305;DHT22;30019;50.576;8.568;2023-02-28T06:58:54;-0.20;99.90
44305;DHT22;30019;50.576;8.568;2023-02-28T07:01:19;-0.20;99.90
44305;DHT22;30019;50.576;8.568;2023-02-28T07:03:46;-0.20;99.90
44305;DHT22;30019;50.576;8.568;2023-02-28T07:06:12;-0.20;99.90
44305;DHT22;30019;50.576;8.568;2023-02-28T07:08:38;-0.20;99.90
44305;DHT22;30019;50.576;8.568;2023-02-28T07:11:05;-0.20;99.90
44305;DHT22;30019;50.576;8.568;2023-02-28T07:13:31;-0.10;99.90
44305;DHT22;30019;50.576;8.568;2023-02-28T07:16:03;-0.10;99.90
44305;DHT22;30019;50.576;8.568;2023-02-28T07:18:29;-0.10;99.90
44305;DHT22;30019;50.576;8.568;2023-02-28T07:20:55;0.00;99.90
44305;DHT22;30019;50.576;8.568;2023-02-28T07:23:21;0.10;99.90
44305;DHT22;30019;50.576;8.568;2023-02-28T07:25:47;0.10;99.90
44305;DHT22;30019;50.576;8.568;2023-02-28T07:28:13;0.20;99.90
44305;DHT22;30019;50.576;8.568;2023-02-28T07:30:40;0.20;99.90
44305;DHT22;30019;50.576;8.568;2023-02-28T07:33:06;0.30;99.90
44305;DHT22;30019;50.576;8.568;2023-02-28T07:35:32;0.30;99.90
44305;DHT22;30019;50.576;8.568;2023-02-28T07:38:04;0.40;99.90
44305;DHT22;30019;50.576;8.568;2023-02-28T07:40:29;0.50;99.90
44305;DHT22;30019;50.576;8.568;2023-02-28T07:42:55;0.60;99.90
44305;DHT22;30019;50.576;8.568;2023-02-28T07:45:21;0.60;99.90
44305;DHT22;30019;50.576;8.568;2023-02-28T07:47:46;0.70;99.90
44305;DHT22;30019;50.576;8.568;2023-02-28T07:50:15;0.70;99.90
44305;DHT22;30019;50.576;8.568;2023-02-28T07:52:41;0.70;99.90
44305;DHT22;30019;50.576;8.568;2023-02-28T07:55:08;0.70;99.90
44305;DHT22;30019;50.576;8.568;2023-02-28T07:57:34;0.80;99.90
44305;DHT22;30019;50.576;8.568;2023-02-28T08:00:00;0.80;99.90
44305;DHT22;30019;50.576;8.568;2023-02-28T08:02:26;0.80;99.90
44305;DHT22;30019;50.576;8.568;2023-02-28T08:04:52;0.80;99.90
44305;DHT22;30019;50.576;8.568;2023-02-28T08:07:18;0.80;99.90
44305;DHT22;30019;50.576;8.568;2023-02-28T08:09:45;0.90;99.90
44305;DHT22;30019;50.576;8.568;2023-02-28T08:12:11;1.00;99.90
44305;DHT22;30019;50.576;8.568;2023-02-28T08:14:37;1.00;99.90
44305;DHT22;30019;50.576;8.568;2023-02-28T08:17:03;1.00;99.90
44305;DHT22;30019;50.576;8.568;2023-02-28T08:19:29;1.10;99.90
44305;DHT22;30019;50.576;8.568;2023-02-28T08:21:55;1.10;99.90
44305;DHT22;30019;50.576;8.568;2023-02-28T08:24:21;1.10;99.90
44305;DHT22;30019;50.576;8.568;2023-02-28T08:26:47;1.20;99.90
44305;DHT22;30019;50.576;8.568;2023-02-28T08:29:13;1.20;99.90
44305;DHT22;30019;50.576;8.568;2023-02-28T08:31:44;1.20;99.90
44305;DHT22;30019;50.576;8.568;2023-02-28T08:34:23;1.20;99.90
44305;DHT22;30019;50.576;8.568;2023-02-28T08:36:56;1.20;99.90
44305;DHT22;30019;50.576;8.568;2023-02-28T08:39:24;1.30;99.90
44305;DHT22;30019;50.576;8.568;2023-02-28T08:41:50;1.30;99.90
44305;DHT22;30019;50.576;8.568;2023-02-28T08:44:16;1.30;99.90
44305;DHT22;30019;50.576;8.568;2023-02-28T08:46:41;1.30;99.90
44305;DHT22;30019;50.576;8.568;2023-02-28T08:49:07;1.40;99.90
44305;DHT22;30019;50.576;8.568;2023-02-28T08:51:32;1.50;99.90
44305;DHT22;30019;50.576;8.568;2023-02-28T08:53:59;1.60;99.90
44305;DHT22;30019;50.576;8.568;2023-02-28T08:56:27;1.60;99.90
44305;DHT22;30019;50.576;8.568;2023-02-28T08:58:54;1.60;99.90
44305;DHT22;30019;50.576;8.568;2023-02-28T09:01:23;1.70;99.90
44305;DHT22;30019;50.576;8.568;2023-02-28T09:03:50;1.80;99.90
44305;DHT22;30019;50.576;8.568;2023-02-28T09:06:18;1.70;99.90
44305;DHT22;30019;50.576;8.568;2023-02-28T09:08:44;1.80;99.90
44305;DHT22;30019;50.576;8.568;2023-02-28T09:11:10;1.90;99.90
44305;DHT22;30019;50.576;8.568;2023-02-28T09:13:36;1.90;99.90
44305;DHT22;30019;50.576;8.568;2023-02-28T09:16:06;2.00;99.90
44305;DHT22;30019;50.576;8.568;2023-02-28T09:18:34;2.10;99.20
44305;DHT22;30019;50.576;8.568;2023-02-28T09:21:09;2.10;98.40
44305;DHT22;30019;50.576;8.568;2023-02-28T09:23:36;2.20;98.10
44305;DHT22;30019;50.576;8.568;2023-02-28T09:26:04;2.20;97.40
44305;DHT22;30019;50.576;8.568;2023-02-28T09:28:29;2.20;97.80
44305;DHT22;30019;50.576;8.568;2023-02-28T09:30:55;2.30;97.00
44305;DHT22;30019;50.576;8.568;2023-02-28T09:33:22;2.50;96.70
44305;DHT22;30019;50.576;8.568;2023-02-28T09:35:49;2.40;96.50
44305;DHT22;30019;50.576;8.568;2023-02-28T09:38:15;2.60;96.90
44305;DHT22;30019;50.576;8.568;2023-02-28T09:40:50;2.70;96.20
44305;DHT22;30019;50.576;8.568;2023-02-28T09:43:18;2.70;96.70
44305;DHT22;30019;50.576;8.568;2023-02-28T09:46:00;2.70;95.40
44305;DHT22;30019;50.576;8.568;2023-02-28T09:48:36;2.80;95.90
44305;DHT22;30019;50.576;8.568;2023-02-28T09:51:26;3.20;97.30
44305;DHT22;30019;50.576;8.568;2023-02-28T09:53:53;3.30;95.70
44305;DHT22;30019;50.576;8.568;2023-02-28T09:56:25;3.40;93.90
44305;DHT22;30019;50.576;8.568;2023-02-28T09:59:19;3.40;93.60
44305;DHT22;30019;50.576;8.568;2023-02-28T10:02:12;3.50;95.20
44305;DHT22;30019;50.576;8.568;2023-02-28T10:04:54;3.50;93.60
44305;DHT22;30019;50.576;8.568;2023-02-28T10:12:43;3.90;93.60
44305;DHT22;30019;50.576;8.568;2023-02-28T10:18:50;3.80;92.80
44305;DHT22;30019;50.576;8.568;2023-02-28T10:28:14;3.10;94.20
44305;DHT22;30019;50.576;8.568;2023-02-28T10:31:15;3.00;94.00
44305;DHT22;30019;50.576;8.568;2023-02-28T10:33:43;2.80;94.70
44305;DHT22;30019;50.576;8.568;2023-02-28T10:39:41;2.80;95.30
44305;DHT22;30019;50.576;8.568;2023-02-28T10:56:31;4.50;93.00
44305;DHT22;30019;50.576;8.568;2023-02-28T11:03:11;4.50;92.50
44305;DHT22;30019;50.576;8.568;2023-02-28T11:05:38;3.90;92.60
44305;DHT22;30019;50.576;8.568;2023-02-28T11:08:17;3.70;92.90
44305;DHT22;30019;50.576;8.568;2023-02-28T11:10:54;3.30;92.60
44305;DHT22;30019;50.576;8.568;2023-02-28T11:13:33;3.00;93.10
44305;DHT22;30019;50.576;8.568;2023-02-28T11:16:02;2.90;93.80
44305;DHT22;30019;50.576;8.568;2023-02-28T11:18:53;2.90;94.30
44305;DHT22;30019;50.576;8.568;2023-02-28T11:21:35;3.10;93.60
44305;DHT22;30019;50.576;8.568;2023-02-28T11:24:25;3.00;94.00
44305;DHT22;30019;50.576;8.568;2023-02-28T11:26:52;2.90;94.10
44305;DHT22;30019;50.576;8.568;2023-02-28T11:32:13;3.10;94.30
44305;DHT22;30019;50.576;8.568;2023-02-28T11:34:42;3.00;94.10
44305;DHT22;30019;50.576;8.568;2023-02-28T11:37:16;3.50;95.00
44305;DHT22;30019;50.576;8.568;2023-02-28T11:39:44;4.20;93.50
44305;DHT22;30019;50.576;8.568;2023-02-28T11:51:06;4.60;93.20
44305;DHT22;30019;50.576;8.568;2023-02-28T11:56:32;4.70;92.00
44305;DHT22;30019;50.576;8.568;2023-02-28T11:59:40;5.20;92.20
44305;DHT22;30019;50.576;8.568;2023-02-28T12:02:28;5.60;91.60
44305;DHT22;30019;50.576;8.568;2023-02-28T12:10:33;5.30;91.30
44305;DHT22;30019;50.576;8.568;2023-02-28T12:18:51;4.40;94.20
44305;DHT22;30019;50.576;8.568;2023-02-28T12:21:39;4.10;94.30
44305;DHT22;30019;50.576;8.568;2023-02-28T12:24:21;3.80;95.20
44305;DHT22;30019;50.576;8.568;2023-02-28T12:26:52;3.60;94.50
44305;DHT22;30019;50.576;8.568;2023-02-28T12:29:34;3.90;94.60
44305;DHT22;30019;50.576;8.568;2023-02-28T12:32:32;4.60;94.90
44305;DHT22;30019;50.576;8.568;2023-02-28T12:35:21;4.60;93.60
44305;DHT22;30019;50.576;8.568;2023-02-28T12:38:01;4.20;93.50
44305;DHT22;30019;50.576;8.568;2023-02-28T12:43:07;3.70;94.90
44305;DHT22;30019;50.576;8.568;2023-02-28T12:48:14;4.10;96.10
44305;DHT22;30019;50.576;8.568;2023-02-28T12:50:40;4.10;94.40
44305;DHT22;30019;50.576;8.568;2023-02-28T12:53:11;4.00;94.20
44305;DHT22;30019;50.576;8.568;2023-02-28T12:55:52;3.90;94.50
44305;DHT22;30019;50.576;8.568;2023-02-28T12:58:22;3.90;94.90
44305;DHT22;30019;50.576;8.568;2023-02-28T13:09:10;3.60;95.40
44305;DHT22;30019;50.576;8.568;2023-02-28T13:11:51;4.30;94.80
44305;DHT22;30019;50.576;8.568;2023-02-28T13:14:24;5.10;93.70
44305;DHT22;30019;50.576;8.568;2023-02-28T13:19:45;5.60;92.10
44305;DHT22;30019;50.576;8.568;2023-02-28T13:22:36;6.10;91.80
44305;DHT22;30019;50.576;8.568;2023-02-28T13:28:12;7.00;90.60
44305;DHT22;30019;50.576;8.568;2023-02-28T13:33:32;6.70;90.00
44305;DHT22;30019;50.576;8.568;2023-02-28T13:36:29;7.00;91.50
44305;DHT22;30019;50.576;8.568;2023-02-28T13:39:11;6.90;89.60
44305;DHT22;30019;50.576;8.568;2023-02-28T13:41:49;6.80;88.60
44305;DHT22;30019;50.576;8.568;2023-02-28T13:44:20;6.70;89.60
44305;DHT22;30019;50.576;8.568;2023-02-28T13:49:27;6.80;91.30
44305;DHT22;30019;50.576;8.568;2023-02-28T14:00:17;7.60;88.60
44305;DHT22;30019;50.576;8.568;2023-02-28T14:05:34;6.80;89.70
44305;DHT22;30019;50.576;8.568;2023-02-28T14:08:06;7.00;90.00
44305;DHT22;30019;50.576;8.568;2023-02-28T14:10:50;6.70;88.50
44305;DHT22;30019;50.576;8.568;2023-02-28T14:13:41;6.90;89.40
44305;DHT22;30019;50.576;8.568;2023-02-28T14:16:12;6.60;89.40
44305;DHT22;30019;50.576;8.568;2023-02-28T14:18:42;6.20;89.80
44305;DHT22;30019;50.576;8.568;2023-02-28T14:21:33;6.20;90.20
44305;DHT22;30019;50.576;8.568;2023-02-28T14:38:08;6.80;89.40
44305;DHT22;30019;50.576;8.568;2023-02-28T14:40:40;6.60;90.10
44305;DHT22;30019;50.576;8.568;2023-02-28T14:43:26;6.40;88.80
44305;DHT22;30019;50.576;8.568;2023-02-28T14:45:55;6.50;89.00
44305;DHT22;30019;50.576;8.568;2023-02-28T14:48:22;6.50;90.30
44305;DHT22;30019;50.576;8.568;2023-02-28T14:50:52;6.90;90.50
44305;DHT22;30019;50.576;8.568;2023-02-28T14:53:20;6.90;89.10
44305;DHT22;30019;50.576;8.568;2023-02-28T14:55:48;6.90;90.00
44305;DHT22;30019;50.576;8.568;2023-02-28T14:58:28;6.60;89.10
44305;DHT22;30019;50.576;8.568;2023-02-28T15:00:57;6.60;89.90
44305;DHT22;30019;50.576;8.568;2023-02-28T15:03:34;6.50;90.10
44305;DHT22;30019;50.576;8.568;2023-02-28T15:06:22;6.10;89.30
44305;DHT22;30019;50.576;8.568;2023-02-28T15:08:48;5.70;90.30
44305;DHT22;30019;50.576;8.568;2023-02-28T15:11:32;5.40;91.40
44305;DHT22;30019;50.576;8.568;2023-02-28T15:13:57;5.20;91.60
44305;DHT22;30019;50.576;8.568;2023-02-28T15:18:57;4.80;91.50
44305;DHT22;30019;50.576;8.568;2023-02-28T15:21:29;4.80;92.40
44305;DHT22;30019;50.576;8.568;2023-02-28T15:24:13;4.80;91.80
44305;DHT22;30019;50.576;8.568;2023-02-28T15:26:43;4.70;92.40
44305;DHT22;30019;50.576;8.568;2023-02-28T15:29:19;4.60;93.10
44305;DHT22;30019;50.576;8.568;2023-02-28T15:31:53;4.60;92.70
44305;DHT22;30019;50.576;8.568;2023-02-28T15:34:27;4.40;93.00
44305;DHT22;30019;50.576;8.568;2023-02-28T15:36:53;4.40;93.40
44305;DHT22;30019;50.576;8.568;2023-02-28T15:39:21;4.30;93.00
44305;DHT22;30019;50.576;8.568;2023-02-28T15:41:47;4.30;93.50
44305;DHT22;30019;50.576;8.568;2023-02-28T15:46:57;4.10;94.00
44305;DHT22;30019;50.576;8.568;2023-02-28T15:49:24;4.00;93.70
44305;DHT22;30019;50.576;8.568;2023-02-28T15:51:52;4.00;94.50
44305;DHT22;30019;50.576;8.568;2023-02-28T15:54:24;4.00;94.50
44305;DHT22;30019;50.576;8.568;2023-02-28T15:56:55;3.90;94.20
44305;DHT22;30019;50.576;8.568;2023-02-28T15:59:25;3.90;94.30
44305;DHT22;30019;50.576;8.568;2023-02-28T16:02:18;3.80;94.90
44305;DHT22;30019;50.576;8.568;2023-02-28T16:07:37;3.70;96.40
44305;DHT22;30019;50.576;8.568;2023-02-28T16:10:04;3.60;96.40
44305;DHT22;30019;50.576;8.568;2023-02-28T16:12:32;3.50;96.20
44305;DHT22;30019;50.576;8.568;2023-02-28T16:15:01;3.50;96.10
44305;DHT22;30019;50.576;8.568;2023-02-28T16:17:31;3.50;95.80
44305;DHT22;30019;50.576;8.568;2023-02-28T16:19:58;3.50;95.50
44305;DHT22;30019;50.576;8.568;2023-02-28T16:22:24;3.40;95.70
44305;DHT22;30019;50.576;8.568;2023-02-28T16:24:50;3.40;95.60
44305;DHT22;30019;50.576;8.568;2023-02-28T16:27:24;3.40;96.10
44305;DHT22;30019;50.576;8.568;2023-02-28T16:29:52;3.30;96.40
44305;DHT22;30019;50.576;8.568;2023-02-28T16:32:18;3.30;96.70
44305;DHT22;30019;50.576;8.568;2023-02-28T16:34:44;3.10;96.50
44305;DHT22;30019;50.576;8.568;2023-02-28T16:37:12;3.10;96.60
44305;DHT22;30019;50.576;8.568;2023-02-28T16:39:39;3.10;96.70
44305;DHT22;30019;50.576;8.568;2023-02-28T16:42:04;3.00;96.80
44305;DHT22;30019;50.576;8.568;2023-02-28T16:44:33;3.00;96.70
44305;DHT22;30019;50.576;8.568;2023-02-28T16:47:00;2.90;96.80
44305;DHT22;30019;50.576;8.568;2023-02-28T16:49:26;2.90;97.20
44305;DHT22;30019;50.576;8.568;2023-02-28T16:51:52;2.80;97.30
44305;DHT22;30019;50.576;8.568;2023-02-28T16:54:17;2.70;97.60
44305;DHT22;30019;50.576;8.568;2023-02-28T16:56:46;2.70;97.30
44305;DHT22;30019;50.576;8.568;2023-02-28T16:59:12;2.60;97.60
44305;DHT22;30019;50.576;8.568;2023-02-28T17:01:40;2.50;98.00
44305;DHT22;30019;50.576;8.568;2023-02-28T17:04:06;2.50;98.70
44305;DHT22;30019;50.576;8.568;2023-02-28T17:06:31;2.30;98.70
44305;DHT22;30019;50.576;8.568;2023-02-28T17:08:58;2.30;99.20
44305;DHT22;30019;50.576;8.568;2023-02-28T17:11:25;2.20;99.30
44305;DHT22;30019;50.576;8.568;2023-02-28T17:13:51;2.20;99.50
44305;DHT22;30019;50.576;8.568;2023-02-28T17:16:24;2.10;99.50
44305;DHT22;30019;50.576;8.568;2023-02-28T17:18:53;2.00;99.40
44305;DHT22;30019;50.576;8.568;2023-02-28T17:21:19;2.00;99.40
44305;DHT22;30019;50.576;8.568;2023-02-28T17:23:44;1.90;99.50
44305;DHT22;30019;50.576;8.568;2023-02-28T17:26:14;1.90;99.80
44305;DHT22;30019;50.576;8.568;2023-02-28T17:28:40;1.80;99.90
44305;DHT22;30019;50.576;8.568;2023-02-28T17:31:07;1.80;99.80
44305;DHT22;30019;50.576;8.568;2023-02-28T17:33:33;1.80;99.90
44305;DHT22;30019;50.576;8.568;2023-02-28T17:35:59;1.70;99.90
44305;DHT22;30019;50.576;8.568;2023-02-28T17:38:24;1.70;99.90
44305;DHT22;30019;50.576;8.568;2023-02-28T17:40:50;1.60;99.90
44305;DHT22;30019;50.576;8.568;2023-02-28T17:43:15;1.50;99.90
44305;DHT22;30019;50.576;8.568;2023-02-28T17:45:41;1.40;99.90
44305;DHT22;30019;50.576;8.568;2023-02-28T17:48:09;1.20;99.90
44305;DHT22;30019;50.576;8.568;2023-02-28T17:50:36;1.10;99.90
44305;DHT22;30019;50.576;8.568;2023-02-28T17:53:01;1.00;99.90
44305;DHT22;30019;50.576;8.568;2023-02-28T17:55:27;1.00;99.90
44305;DHT22;30019;50.576;8.568;2023-02-28T17:57:53;1.00;99.90
44305;DHT22;30019;50.576;8.568;2023-02-28T18:00:18;0.90;99.90
44305;DHT22;30019;50.576;8.568;2023-02-28T18:02:44;0.90;99.90
44305;DHT22;30019;50.576;8.568;2023-02-28T18:05:10;0.90;99.90
44305;DHT22;30019;50.576;8.568;2023-02-28T18:07:37;0.90;99.90
44305;DHT22;30019;50.576;8.568;2023-02-28T18:10:04;0.80;99.90
44305;DHT22;30019;50.576;8.568;2023-02-28T18:12:30;0.80;99.90
44305;DHT22;30019;50.576;8.568;2023-02-28T18:14:56;0.80;99.90
44305;DHT22;30019;50.576;8.568;2023-02-28T18:17:22;0.80;99.90
44305;DHT22;30019;50.576;8.568;2023-02-28T18:19:47;0.80;99.90
44305;DHT22;30019;50.576;8.568;2023-02-28T18:22:13;0.80;99.90
44305;DHT22;30019;50.576;8.568;2023-02-28T18:24:39;0.80;99.90
44305;DHT22;30019;50.576;8.568;2023-02-28T18:27:05;0.80;99.90
44305;DHT22;30019;50.576;8.568;2023-02-28T18:29:31;0.80;99.90
44305;DHT22;30019;50.576;8.568;2023-02-28T18:31:58;0.80;99.90